Latest Weather Observations for Banana Bank

IDQ60801

Issued at 4:02 am EST Saturday 20 December 2014 (issued every 30 minutes, with the page automatically refreshed every 10 minutes)

About weather observations | Map of weather stations | Latest weather observations for QLD | Other Formats
Station Details ID: 040925 Name: BANANA BANK NORTH BEACON Lat: -27.53 Lon: 153.33 Height: 7.0 m
Data from the previous 72 hours. | See also: Recent months for locations in Queensland
Date/Time
EST
Temp
°C
App
Temp
°C
Dew
Point
Rel
Hum
%
Delta-T
°C
Wind Press
QNH
hPa
Press
MSL
hPa
Rain
since 9 am
mm
Dir
 
Spd
km/h
Gust
km/h
Spd
kts
Gust
kts
20/04:00am - - - - - S 24 30 13 16 - - -
20/03:30am - - - - - S 24 30 13 16 - - -
20/03:00am - - - - - SSE 22 30 12 16 - - -
20/02:30am - - - - - SSE 24 30 13 16 - - -
20/02:00am - - - - - SSE 24 30 13 16 - - -
20/01:30am - - - - - SSE 26 33 14 18 - - -
20/01:00am - - - - - SSE 24 30 13 16 - - -
20/12:30am - - - - - SSE 30 35 16 19 - - -
20/12:00am - - - - - SSE 30 35 16 19 - - -
 
Date/Time
EST
Temp
°C
App
Temp
°C
Dew
Point
Rel
Hum
%
Delta-T
°C
Wind Press
QNH
hPa
Press
MSL
hPa
Rain
since 9 am
mm
Dir
 
Spd
km/h
Gust
km/h
Spd
kts
Gust
kts
19/11:30pm - - - - - SSE 33 43 18 23 - - -
19/11:00pm - - - - - SSE 33 43 18 23 - - -
19/10:30pm - - - - - SSE 37 44 20 24 - - -
19/10:00pm - - - - - SSE 35 43 19 23 - - -
19/09:30pm - - - - - SE 24 33 13 18 - - -
19/09:00pm - - - - - SE 15 17 8 9 - - -
19/08:30pm - - - - - SE 13 17 7 9 - - -
19/08:00pm - - - - - E 9 13 5 7 - - -
19/07:30pm - - - - - E 9 11 5 6 - - -
19/07:00pm - - - - - E 11 17 6 9 - - -
19/06:30pm - - - - - NE 19 26 10 14 - - -
19/06:00pm - - - - - N 22 26 12 14 - - -
19/05:30pm - - - - - N 22 28 12 15 - - -
19/05:00pm - - - - - NNE 24 30 13 16 - - -
19/04:30pm - - - - - N 20 24 11 13 - - -
19/04:00pm - - - - - N 22 24 12 13 - - -
19/03:30pm - - - - - N 20 24 11 13 - - -
19/03:00pm - - - - - N 20 24 11 13 - - -
19/02:30pm - - - - - N 20 22 11 12 - - -
19/02:00pm - - - - - N 19 20 10 11 - - -
19/01:30pm - - - - - N 17 20 9 11 - - -
19/01:00pm - - - - - N 19 20 10 11 - - -
19/12:30pm - - - - - N 19 20 10 11 - - -
19/12:00pm - - - - - N 19 20 10 11 - - -
19/11:30am - - - - - N 17 19 9 10 - - -
19/11:00am - - - - - N 17 19 9 10 - - -
19/10:30am - - - - - N 17 19 9 10 - - -
19/10:00am - - - - - NNW 13 15 7 8 - - -
19/09:30am - - - - - NNW 11 15 6 8 - - -
19/09:00am - - - - - NW 11 15 6 8 - - -
19/08:30am - - - - - WNW 13 17 7 9 - - -
19/08:00am - - - - - WNW 15 19 8 10 - - -
19/07:30am - - - - - WNW 13 17 7 9 - - -
19/07:00am - - - - - W 13 17 7 9 - - -
19/06:30am - - - - - W 13 17 7 9 - - -
19/06:00am - - - - - W 13 19 7 10 - - -
19/05:30am - - - - - W 15 20 8 11 - - -
19/05:00am - - - - - NNW 4 7 2 4 - - -
19/04:30am - - - - - SSW 9 13 5 7 - - -
19/04:00am - - - - - SW 13 17 7 9 - - -
19/03:30am - - - - - WSW 9 15 5 8 - - -
19/03:00am - - - - - WSW 11 17 6 9 - - -
19/02:30am - - - - - W 17 24 9 13 - - -
19/02:00am - - - - - WNW 22 26 12 14 - - -
19/01:30am - - - - - W 19 26 10 14 - - -
19/01:00am - - - - - WNW 20 24 11 13 - - -
19/12:30am - - - - - WNW 30 35 16 19 - - -
19/12:00am - - - - - NW 20 28 11 15 - - -
 
Date/Time
EST
Temp
°C
App
Temp
°C
Dew
Point
Rel
Hum
%
Delta-T
°C
Wind Press
QNH
hPa
Press
MSL
hPa
Rain
since 9 am
mm
Dir
 
Spd
km/h
Gust
km/h
Spd
kts
Gust
kts
18/11:30pm - - - - - N 19 22 10 12 - - -
18/11:00pm - - - - - NNE 19 22 10 12 - - -
18/10:30pm - - - - - NNE 17 22 9 12 - - -
18/10:00pm - - - - - N 17 20 9 11 - - -
18/09:30pm - - - - - N 11 15 6 8 - - -
18/09:00pm - - - - - N 13 15 7 8 - - -
18/08:30pm - - - - - ENE 2 6 1 3 - - -
18/08:00pm - - - - - ESE 4 6 2 3 - - -
18/07:30pm - - - - - SE 6 9 3 5 - - -
18/07:00pm - - - - - SSW 11 17 6 9 - - -
18/06:59pm - - - - - SSW 11 22 6 12 - - -
18/06:30pm - - - - - SW 41 54 22 29 - - -
18/06:28pm - - - - - SW 43 57 23 31 - - -
18/06:14pm - - - - - WNW 50 76 27 41 - - -
18/06:13pm - - - - - NW 48 72 26 39 - - -
18/06:10pm - - - - - NNW 41 72 22 39 - - -
18/06:08pm - - - - - NNW 37 59 20 32 - - -
18/06:00pm - - - - - N 33 41 18 22 - - -
18/05:30pm - - - - - N 35 46 19 25 - - -
18/05:00pm - - - - - N 32 39 17 21 - - -
18/04:30pm - - - - - N 22 26 12 14 - - -
18/04:00pm - - - - - NNE 22 28 12 15 - - -
18/03:30pm - - - - - NNE 20 26 11 14 - - -
18/03:00pm - - - - - NNE 20 26 11 14 - - -
18/02:30pm - - - - - NNE 26 35 14 19 - - -
18/02:00pm - - - - - NE 20 26 11 14 - - -
18/01:30pm - - - - - NNE 15 20 8 11 - - -
18/01:00pm - - - - - N 22 24 12 13 - - -
18/12:30pm - - - - - N 19 20 10 11 - - -
18/12:00pm - - - - - N 7 9 4 5 - - -
18/11:30am - - - - - N 7 7 4 4 - - -
18/11:00am - - - - - NNW 15 19 8 10 - - -
18/10:30am - - - - - NW 13 17 7 9 - - -
18/10:00am - - - - - NW 17 19 9 10 - - -
18/09:30am - - - - - NNW 11 13 6 7 - - -
18/09:00am - - - - - NW 11 13 6 7 - - -
18/08:30am - - - - - NW 13 15 7 8 - - -
18/08:00am - - - - - NW 11 13 6 7 - - -
18/07:30am - - - - - ENE 2 6 1 3 - - -
18/07:00am - - - - - ESE 15 19 8 10 - - -
18/06:30am - - - - - ESE 15 19 8 10 - - -
18/06:00am - - - - - ESE 15 17 8 9 - - -
18/05:30am - - - - - SE 24 28 13 15 - - -
18/05:00am - - - - - SSE 20 30 11 16 - - -
18/04:30am - - - - - SE 32 37 17 20 - - -
18/04:00am - - - - - SE 30 39 16 21 - - -
18/03:30am - - - - - S 22 28 12 15 - - -
18/03:00am - - - - - SW 19 28 10 15 - - -
18/02:30am - - - - - SW 9 13 5 7 - - -
18/02:00am - - - - - SSW 13 17 7 9 - - -
18/01:30am - - - - - S 22 26 12 14 - - -
18/01:00am - - - - - SE 20 28 11 15 - - -
18/12:30am - - - - - SE 15 22 8 12 - - -
18/12:00am - - - - - SSE 6 13 3 7 - - -
 
Date/Time
EST
Temp
°C
App
Temp
°C
Dew
Point
Rel
Hum
%
Delta-T
°C
Wind Press
QNH
hPa
Press
MSL
hPa
Rain
since 9 am
mm
Dir
 
Spd
km/h
Gust
km/h
Spd
kts
Gust
kts
17/11:30pm - - - - - N 22 30 12 16 - - -
17/11:00pm - - - - - N 20 22 11 12 - - -
17/10:30pm - - - - - NNE 17 22 9 12 - - -
17/10:00pm - - - - - NNE 17 19 9 10 - - -
17/09:30pm - - - - - NNE 19 24 10 13 - - -
17/09:00pm - - - - - N 20 26 11 14 - - -
17/08:30pm - - - - - NNE 19 24 10 13 - - -
17/08:00pm - - - - - N 26 33 14 18 - - -
17/07:30pm - - - - - NNE 13 17 7 9 - - -
17/07:00pm - - - - - NE 9 13 5 7 - - -
17/06:30pm - - - - - N 11 13 6 7 - - -
17/06:00pm - - - - - N 11 13 6 7 - - -
17/05:30pm - - - - - N 13 17 7 9 - - -
17/05:00pm - - - - - N 17 20 9 11 - - -
17/04:30pm - - - - - NNE 20 26 11 14 - - -
17/04:00pm - - - - - NNE 22 26 12 14 - - -
17/03:30pm - - - - - NE 28 35 15 19 - - -
17/03:00pm - - - - - NNE 22 26 12 14 - - -
17/02:30pm - - - - - NNE 20 24 11 13 - - -
17/02:00pm - - - - - N 20 24 11 13 - - -
17/01:30pm - - - - - N 24 30 13 16 - - -
17/01:00pm - - - - - N 24 28 13 15 - - -
17/12:30pm - - - - - N 22 28 12 15 - - -
17/12:00pm - - - - - N 20 24 11 13 - - -
17/11:30am - - - - - N 19 20 10 11 - - -
17/11:00am - - - - - N 17 19 9 10 - - -
17/10:30am - - - - - N 9 13 5 7 - - -
17/10:00am - - - - - N 15 17 8 9 - - -
17/09:30am - - - - - N 15 17 8 9 - - -
17/09:00am - - - - - N 11 15 6 8 - - -
17/08:30am - - - - - N 9 9 5 5 - - -
17/08:00am - - - - - WNW 6 7 3 4 - - -
17/07:30am - - - - - CALM 0 2 0 1 - - -
17/07:00am - - - - - NNW 2 6 1 3 - - -
17/06:30am - - - - - N 6 7 3 4 - - -
17/06:00am - - - - - NNW 7 9 4 5 - - -
17/05:30am - - - - - WNW 4 7 2 4 - - -
17/05:00am - - - - - WSW 2 4 1 2 - - -
17/04:30am - - - - - CALM 0 0 0 0 - - -

Other Formats:

Comma delimited format used in spreadsheet applications
http://www.bom.gov.au/fwo/IDQ60801/IDQ60801.94591.axf

JavaScript Object Notation format (JSON) in row-major order
http://www.bom.gov.au/fwo/IDQ60801/IDQ60801.94591.json